createdAt,value
2017-09-29T00:00:51.322Z,1021.0
2017-09-29T00:01:52.850Z,1021.0
2017-09-29T00:02:54.345Z,1021.0
2017-09-29T00:03:55.888Z,1021.0
2017-09-29T00:04:57.401Z,1021.0
2017-09-29T00:05:58.930Z,1021.1
2017-09-29T00:07:00.476Z,1021.0
2017-09-29T00:08:02.008Z,1021.0
2017-09-29T00:09:03.529Z,1021.0
2017-09-29T00:10:05.387Z,1021.0
2017-09-29T00:11:06.935Z,1021.0
2017-09-29T00:12:08.469Z,1021.0
2017-09-29T00:13:10.017Z,1021.0
2017-09-29T00:14:11.561Z,1021.0
2017-09-29T00:15:13.110Z,1021.0
2017-09-29T00:16:14.662Z,1021.1
2017-09-29T00:17:16.162Z,1021.0
2017-09-29T00:18:17.674Z,1021.0
2017-09-29T00:19:19.195Z,1021.1
2017-09-29T00:20:20.728Z,1021.0
2017-09-29T00:21:22.350Z,1021.0
2017-09-29T00:22:23.865Z,1021.0
2017-09-29T00:23:25.435Z,1021.0
2017-09-29T00:24:26.979Z,1021.0
2017-09-29T00:25:28.547Z,1021.0
2017-09-29T00:26:30.074Z,1021.0
2017-09-29T00:27:31.627Z,1021.0
2017-09-29T00:28:33.143Z,1021.0
2017-09-29T00:29:34.701Z,1021.0
2017-09-29T00:30:36.224Z,1020.9
2017-09-29T00:31:37.781Z,1020.9
2017-09-29T00:32:39.288Z,1020.9
2017-09-29T00:33:40.857Z,1020.9
2017-09-29T00:34:42.409Z,1020.9
2017-09-29T00:35:43.979Z,1020.9
2017-09-29T00:36:45.524Z,1020.9
2017-09-29T00:37:47.116Z,1020.9
2017-09-29T00:38:48.641Z,1020.9
2017-09-29T00:39:50.192Z,1020.9
2017-09-29T00:40:51.740Z,1020.9
2017-09-29T00:41:53.276Z,1020.9
2017-09-29T00:42:54.857Z,1020.9
2017-09-29T00:43:56.408Z,1020.9
2017-09-29T00:44:57.982Z,1020.9
2017-09-29T00:45:59.505Z,1020.8
2017-09-29T00:47:01.025Z,1020.8
2017-09-29T00:48:02.532Z,1020.8
2017-09-29T00:49:04.697Z,1020.8
2017-09-29T00:50:06.203Z,1020.8
2017-09-29T00:51:07.750Z,1020.8
2017-09-29T00:52:09.288Z,1020.8
2017-09-29T00:53:10.830Z,1020.9
2017-09-29T00:54:12.428Z,1020.9
2017-09-29T00:55:13.993Z,1020.9
2017-09-29T00:56:15.561Z,1020.8
2017-09-29T00:57:17.093Z,1020.8
2017-09-29T00:58:18.637Z,1020.8
2017-09-29T00:59:20.186Z,1020.9
2017-09-29T01:00:21.719Z,1020.8
2017-09-29T01:01:23.273Z,1020.9
2017-09-29T01:02:24.815Z,1020.8
2017-09-29T01:03:26.322Z,1020.8
2017-09-29T01:04:27.827Z,1020.8
2017-09-29T01:05:29.407Z,1020.9
2017-09-29T01:06:30.939Z,1020.8
2017-09-29T01:07:32.488Z,1020.8
2017-09-29T01:08:33.998Z,1020.9
2017-09-29T01:09:35.553Z,1020.8
2017-09-29T01:10:37.154Z,1020.9
2017-09-29T01:11:38.698Z,1020.8
2017-09-29T01:12:40.259Z,1020.8
2017-09-29T01:13:41.819Z,1020.9
2017-09-29T01:14:43.313Z,1020.9
2017-09-29T01:15:45.723Z,1020.9
2017-09-29T01:16:47.248Z,1020.9
2017-09-29T01:17:48.776Z,1020.9
2017-09-29T01:18:50.303Z,1020.9
2017-09-29T01:19:51.830Z,1020.9
2017-09-29T01:20:53.387Z,1020.9
2017-09-29T01:21:54.927Z,1020.8
2017-09-29T01:22:56.452Z,1020.9
2017-09-29T01:23:58.035Z,1020.9
2017-09-29T01:24:59.546Z,1020.9
2017-09-29T01:26:01.667Z,1020.9
2017-09-29T01:27:03.185Z,1020.9
2017-09-29T01:28:04.699Z,1020.9
2017-09-29T01:29:06.262Z,1020.9
2017-09-29T01:30:07.796Z,1020.9
2017-09-29T01:31:09.321Z,1020.8
2017-09-29T01:32:10.884Z,1020.8
2017-09-29T01:33:12.402Z,1020.8
2017-09-29T01:34:13.961Z,1020.8
2017-09-29T01:35:15.513Z,1020.8
2017-09-29T01:36:17.095Z,1020.8
2017-09-29T01:37:18.635Z,1020.8
2017-09-29T01:38:20.196Z,1020.8
2017-09-29T01:39:21.728Z,1020.8
2017-09-29T01:40:23.256Z,1020.8
2017-09-29T01:41:24.779Z,1020.8
2017-09-29T01:42:26.325Z,1020.7
2017-09-29T01:43:27.867Z,1020.7
2017-09-29T01:44:29.455Z,1020.7
2017-09-29T01:45:31.019Z,1020.7
2017-09-29T01:46:32.587Z,1020.7
2017-09-29T01:47:34.135Z,1020.7
2017-09-29T01:48:35.673Z,1020.7
2017-09-29T01:49:37.196Z,1020.7
2017-09-29T01:50:38.767Z,1020.7
2017-09-29T01:51:40.363Z,1020.7
2017-09-29T01:52:41.932Z,1020.7
2017-09-29T01:53:43.464Z,1020.7
2017-09-29T01:54:45.744Z,1020.6
2017-09-29T01:55:47.290Z,1020.7
2017-09-29T01:56:48.824Z,1020.6
2017-09-29T01:57:50.372Z,1020.6
2017-09-29T01:58:51.928Z,1020.6
2017-09-29T01:59:53.499Z,1020.6
2017-09-29T02:00:55.065Z,1020.6
2017-09-29T02:01:56.618Z,1020.6
2017-09-29T02:02:58.173Z,1020.6
2017-09-29T02:03:59.757Z,1020.6
2017-09-29T02:05:01.304Z,1020.6
2017-09-29T02:06:02.802Z,1020.6
2017-09-29T02:07:04.349Z,1020.5
2017-09-29T02:08:05.895Z,1020.5
2017-09-29T02:09:07.468Z,1020.6
2017-09-29T02:10:09.004Z,1020.5
2017-09-29T02:11:10.565Z,1020.5
2017-09-29T02:12:12.115Z,1020.5
2017-09-29T02:13:13.656Z,1020.5
2017-09-29T02:14:15.206Z,1020.5
2017-09-29T02:15:16.775Z,1020.5
2017-09-29T02:16:18.318Z,1020.5
2017-09-29T02:17:20.205Z,1020.5
2017-09-29T02:18:21.730Z,1020.5
2017-09-29T02:19:23.307Z,1020.5
2017-09-29T02:20:24.834Z,1020.5
2017-09-29T02:21:26.407Z,1020.6
2017-09-29T02:22:27.958Z,1020.5
2017-09-29T02:23:29.516Z,1020.5
2017-09-29T02:24:31.101Z,1020.5
2017-09-29T02:25:32.700Z,1020.5
2017-09-29T02:26:34.238Z,1020.5
2017-09-29T02:27:35.776Z,1020.5
2017-09-29T02:28:37.314Z,1020.5
2017-09-29T02:29:39.708Z,1020.4
2017-09-29T02:30:41.265Z,1020.4
2017-09-29T02:31:42.830Z,1020.4
2017-09-29T02:32:44.342Z,1020.4
2017-09-29T02:33:45.890Z,1020.4
2017-09-29T02:34:47.442Z,1020.4
2017-09-29T02:35:48.988Z,1020.4
2017-09-29T02:36:50.556Z,1020.4
2017-09-29T02:37:52.142Z,1020.4
2017-09-29T02:38:53.707Z,1020.4
2017-09-29T02:39:55.260Z,1020.4
2017-09-29T02:40:56.821Z,1020.4
2017-09-29T02:41:58.370Z,1020.4
2017-09-29T02:42:59.899Z,1020.4
2017-09-29T02:44:01.389Z,1020.4
2017-09-29T02:45:02.929Z,1020.4
2017-09-29T02:46:04.462Z,1020.4
2017-09-29T02:47:06.002Z,1020.4
2017-09-29T02:48:07.974Z,1020.4
2017-09-29T02:49:09.498Z,1020.4
2017-09-29T02:50:11.012Z,1020.4
2017-09-29T02:51:12.552Z,1020.4
2017-09-29T02:52:14.099Z,1020.4
2017-09-29T02:53:15.657Z,1020.4
2017-09-29T02:54:17.150Z,1020.4
2017-09-29T02:55:18.736Z,1020.4
2017-09-29T02:56:20.277Z,1020.4
2017-09-29T02:57:22.743Z,1020.4
2017-09-29T02:58:24.288Z,1020.4
2017-09-29T02:59:25.857Z,1020.4
2017-09-29T03:00:27.424Z,1020.4
2017-09-29T03:01:29.012Z,1020.4
2017-09-29T03:02:30.608Z,1020.4
2017-09-29T03:03:32.176Z,1020.4
2017-09-29T03:04:33.727Z,1020.4
2017-09-29T03:05:35.268Z,1020.4
2017-09-29T03:06:36.798Z,1020.4
2017-09-29T03:07:38.333Z,1020.4
2017-09-29T03:08:39.905Z,1020.4
2017-09-29T03:09:41.447Z,1020.4
2017-09-29T03:10:42.949Z,1020.4
2017-09-29T03:11:44.491Z,1020.4
2017-09-29T03:12:46.041Z,1020.4
2017-09-29T03:13:47.572Z,1020.4
2017-09-29T03:14:49.121Z,1020.4
2017-09-29T03:15:50.643Z,1020.4
2017-09-29T03:16:52.210Z,1020.4
2017-09-29T03:17:53.739Z,1020.4
2017-09-29T03:18:55.284Z,1020.5
2017-09-29T03:19:56.841Z,1020.4
2017-09-29T03:20:58.395Z,1020.4
2017-09-29T03:21:59.924Z,1020.4
2017-09-29T03:23:01.544Z,1020.4
2017-09-29T03:24:03.064Z,1020.4
2017-09-29T03:25:05.274Z,1020.4
2017-09-29T03:26:06.803Z,1020.4
2017-09-29T03:27:08.324Z,1020.4
2017-09-29T03:28:09.855Z,1020.4
2017-09-29T03:29:11.401Z,1020.4
2017-09-29T03:30:12.969Z,1020.4
2017-09-29T03:31:14.492Z,1020.3
2017-09-29T03:32:16.023Z,1020.3
2017-09-29T03:33:17.638Z,1020.3
2017-09-29T03:34:19.200Z,1020.3
2017-09-29T03:35:21.225Z,1020.3
2017-09-29T03:36:22.836Z,1020.4
2017-09-29T03:37:24.330Z,1020.3
2017-09-29T03:38:25.865Z,1020.4
2017-09-29T03:39:27.387Z,1020.4
2017-09-29T03:40:28.889Z,1020.4
2017-09-29T03:41:30.421Z,1020.4
2017-09-29T03:42:31.923Z,1020.4
2017-09-29T03:43:33.454Z,1020.4
2017-09-29T03:44:34.952Z,1020.4
2017-09-29T03:45:36.457Z,1020.4
2017-09-29T03:46:37.965Z,1020.4
2017-09-29T03:47:39.450Z,1020.3
2017-09-29T03:48:40.959Z,1020.4
2017-09-29T03:49:42.446Z,1020.4
2017-09-29T03:50:43.957Z,1020.4
2017-09-29T03:51:45.475Z,1020.4
2017-09-29T03:52:47.274Z,1020.3
2017-09-29T03:53:48.739Z,1020.3
2017-09-29T03:54:50.275Z,1020.3
2017-09-29T03:55:51.758Z,1020.2
2017-09-29T03:56:53.268Z,1020.3
2017-09-29T03:57:54.764Z,1020.3
2017-09-29T03:58:56.231Z,1020.3
2017-09-29T03:59:57.687Z,1020.3
2017-09-29T04:00:59.155Z,1020.3
2017-09-29T04:02:00.584Z,1020.3
2017-09-29T04:03:02.060Z,1020.3
2017-09-29T04:04:03.507Z,1020.3
2017-09-29T04:05:05.089Z,1020.3
2017-09-29T04:06:06.645Z,1020.3
2017-09-29T04:07:08.281Z,1020.3
2017-09-29T04:08:09.878Z,1020.3
2017-09-29T04:09:11.445Z,1020.3
2017-09-29T04:10:13.064Z,1020.3
2017-09-29T04:11:14.691Z,1020.3
2017-09-29T04:12:16.240Z,1020.3
2017-09-29T04:13:17.808Z,1020.3
2017-09-29T04:14:19.356Z,1020.3
2017-09-29T04:15:20.901Z,1020.3
2017-09-29T04:16:22.567Z,1020.3
2017-09-29T04:17:24.227Z,1020.3
2017-09-29T04:18:25.898Z,1020.3
2017-09-29T04:19:27.931Z,1020.3
2017-09-29T04:20:29.558Z,1020.3
2017-09-29T04:21:31.175Z,1020.2
2017-09-29T04:22:32.974Z,1020.3
2017-09-29T04:23:34.619Z,1020.2
2017-09-29T04:24:36.228Z,1020.2
2017-09-29T04:25:37.844Z,1020.3
2017-09-29T04:26:39.487Z,1020.2
2017-09-29T04:27:41.113Z,1020.3
2017-09-29T04:28:42.785Z,1020.2
2017-09-29T04:29:44.511Z,1020.2
2017-09-29T04:30:46.129Z,1020.2
2017-09-29T04:31:47.809Z,1020.3
2017-09-29T04:32:49.417Z,1020.2
2017-09-29T04:33:51.062Z,1020.3
2017-09-29T04:34:52.749Z,1020.3
2017-09-29T04:35:54.382Z,1020.3
2017-09-29T04:36:56.046Z,1020.3
2017-09-29T04:37:57.696Z,1020.2
2017-09-29T04:38:59.333Z,1020.2
2017-09-29T04:40:00.956Z,1020.3
2017-09-29T04:41:02.610Z,1020.2
2017-09-29T04:42:04.259Z,1020.2
2017-09-29T04:43:05.905Z,1020.2
2017-09-29T04:44:07.540Z,1020.2
2017-09-29T04:45:09.177Z,1020.2
2017-09-29T04:46:10.788Z,1020.2
2017-09-29T04:47:12.392Z,1020.3
2017-09-29T04:48:14.062Z,1020.3
2017-09-29T04:49:15.712Z,1020.2
2017-09-29T04:50:17.386Z,1020.3
2017-09-29T04:51:19.087Z,1020.3
2017-09-29T04:52:20.743Z,1020.3
2017-09-29T04:53:22.340Z,1020.2
2017-09-29T04:54:23.993Z,1020.2
2017-09-29T04:55:25.676Z,1020.3
2017-09-29T04:56:27.301Z,1020.2
2017-09-29T04:57:28.893Z,1020.3
2017-09-29T04:58:30.437Z,1020.3
2017-09-29T04:59:32.026Z,1020.2
2017-09-29T05:00:33.710Z,1020.3
2017-09-29T05:01:35.327Z,1020.3
2017-09-29T05:02:36.915Z,1020.2
2017-09-29T05:03:38.591Z,1020.2
2017-09-29T05:04:40.257Z,1020.2
2017-09-29T05:05:41.946Z,1020.2
2017-09-29T05:06:43.567Z,1020.2
2017-09-29T05:07:45.173Z,1020.2
2017-09-29T05:08:46.847Z,1020.2
2017-09-29T05:09:48.511Z,1020.2
2017-09-29T05:10:50.123Z,1020.2
2017-09-29T05:11:51.771Z,1020.2
2017-09-29T05:12:53.436Z,1020.2
2017-09-29T05:13:55.184Z,1020.2
2017-09-29T05:14:56.861Z,1020.3
2017-09-29T05:15:58.559Z,1020.3
2017-09-29T05:17:00.168Z,1020.2
2017-09-29T05:18:01.839Z,1020.3
2017-09-29T05:19:03.440Z,1020.3
2017-09-29T05:20:05.008Z,1020.3
2017-09-29T05:21:06.607Z,1020.3
2017-09-29T05:22:08.216Z,1020.2
2017-09-29T05:23:09.827Z,1020.3
2017-09-29T05:24:11.456Z,1020.3
2017-09-29T05:25:13.087Z,1020.3
2017-09-29T05:26:14.726Z,1020.3
2017-09-29T05:27:16.313Z,1020.3
2017-09-29T05:28:17.938Z,1020.3
2017-09-29T05:29:19.634Z,1020.3
2017-09-29T05:30:21.234Z,1020.3
2017-09-29T05:31:22.898Z,1020.3
2017-09-29T05:32:24.502Z,1020.3
2017-09-29T05:33:26.144Z,1020.3
2017-09-29T05:34:27.804Z,1020.3
2017-09-29T05:35:29.418Z,1020.3
2017-09-29T05:36:31.051Z,1020.3
2017-09-29T05:37:32.743Z,1020.3
2017-09-29T05:38:34.324Z,1020.3
2017-09-29T05:39:35.963Z,1020.3
2017-09-29T05:40:37.566Z,1020.3
2017-09-29T05:41:39.182Z,1020.3
2017-09-29T05:42:40.853Z,1020.3
2017-09-29T05:43:42.497Z,1020.3
2017-09-29T05:44:44.155Z,1020.3
2017-09-29T05:45:45.855Z,1020.4
2017-09-29T05:46:47.503Z,1020.3
2017-09-29T05:47:49.223Z,1020.4
2017-09-29T05:48:50.815Z,1020.3
2017-09-29T05:49:52.551Z,1020.4
2017-09-29T05:50:54.188Z,1020.3
2017-09-29T05:51:55.847Z,1020.4
2017-09-29T05:52:57.506Z,1020.4
2017-09-29T05:53:59.131Z,1020.4
2017-09-29T05:55:00.821Z,1020.4
2017-09-29T05:56:02.493Z,1020.4
2017-09-29T05:57:04.196Z,1020.4
2017-09-29T05:58:05.800Z,1020.4
2017-09-29T05:59:07.425Z,1020.4
2017-09-29T06:00:09.077Z,1020.4
2017-09-29T06:01:10.773Z,1020.4
2017-09-29T06:02:12.397Z,1020.4
2017-09-29T06:03:14.072Z,1020.4
2017-09-29T06:04:15.731Z,1020.4
2017-09-29T06:05:17.424Z,1020.4
2017-09-29T06:06:19.144Z,1020.4
2017-09-29T06:07:20.771Z,1020.4
2017-09-29T06:08:22.457Z,1020.4
2017-09-29T06:09:24.113Z,1020.4
2017-09-29T06:10:25.729Z,1020.4
2017-09-29T06:11:27.378Z,1020.4
2017-09-29T06:12:28.972Z,1020.4
2017-09-29T06:13:30.700Z,1020.4
2017-09-29T06:14:32.389Z,1020.4
2017-09-29T06:15:34.056Z,1020.4
2017-09-29T06:16:35.739Z,1020.5
2017-09-29T06:17:37.317Z,1020.5
2017-09-29T06:18:39.023Z,1020.4
2017-09-29T06:19:40.679Z,1020.4
2017-09-29T06:20:42.316Z,1020.4
2017-09-29T06:21:43.999Z,1020.4
2017-09-29T06:22:45.639Z,1020.4
2017-09-29T06:23:47.293Z,1020.4
2017-09-29T06:24:48.887Z,1020.4
2017-09-29T06:25:50.561Z,1020.4
2017-09-29T06:26:52.215Z,1020.4
2017-09-29T06:27:53.806Z,1020.4
2017-09-29T06:28:55.441Z,1020.4
2017-09-29T06:29:57.069Z,1020.4
2017-09-29T06:30:58.684Z,1020.4
2017-09-29T06:32:00.356Z,1020.3
2017-09-29T06:33:01.979Z,1020.4
2017-09-29T06:34:03.645Z,1020.4
2017-09-29T06:35:05.412Z,1020.4
2017-09-29T06:36:07.068Z,1020.4
2017-09-29T06:37:08.731Z,1020.4
2017-09-29T06:38:10.328Z,1020.5
2017-09-29T06:39:11.917Z,1020.4
2017-09-29T06:40:13.610Z,1020.4
2017-09-29T06:41:15.216Z,1020.4
2017-09-29T06:42:16.928Z,1020.4
2017-09-29T06:43:18.533Z,1020.4
2017-09-29T06:44:20.166Z,1020.4
2017-09-29T06:45:21.804Z,1020.4
2017-09-29T06:46:23.488Z,1020.4
2017-09-29T06:47:25.226Z,1020.3
2017-09-29T06:48:26.823Z,1020.3
2017-09-29T06:49:28.471Z,1020.4
2017-09-29T06:50:30.130Z,1020.3
2017-09-29T06:51:31.774Z,1020.3
2017-09-29T06:52:33.411Z,1020.4
2017-09-29T06:53:35.096Z,1020.3
2017-09-29T06:54:36.680Z,1020.3
2017-09-29T06:55:38.279Z,1020.3
2017-09-29T06:56:39.963Z,1020.4
2017-09-29T06:57:41.695Z,1020.4
2017-09-29T06:58:43.293Z,1020.3
2017-09-29T06:59:44.907Z,1020.3
2017-09-29T07:00:46.546Z,1020.3
2017-09-29T07:01:48.178Z,1020.4
2017-09-29T07:02:49.811Z,1020.4
2017-09-29T07:03:51.554Z,1020.3
2017-09-29T07:04:53.164Z,1020.3
2017-09-29T07:05:54.838Z,1020.4
2017-09-29T07:06:56.464Z,1020.3
2017-09-29T07:07:58.107Z,1020.3
2017-09-29T07:08:59.754Z,1020.3
2017-09-29T07:10:01.450Z,1020.3
2017-09-29T07:11:03.057Z,1020.3
2017-09-29T07:12:04.696Z,1020.3
2017-09-29T07:13:06.319Z,1020.3
2017-09-29T07:14:07.963Z,1020.3
2017-09-29T07:15:09.561Z,1020.3
2017-09-29T07:16:11.224Z,1020.3
2017-09-29T07:17:12.857Z,1020.4
2017-09-29T07:18:14.532Z,1020.4
2017-09-29T07:19:16.173Z,1020.4
2017-09-29T07:20:17.818Z,1020.4
2017-09-29T07:21:19.413Z,1020.4
2017-09-29T07:22:21.049Z,1020.4
2017-09-29T07:23:22.713Z,1020.4
2017-09-29T07:24:24.327Z,1020.4
2017-09-29T07:25:26.026Z,1020.4
2017-09-29T07:26:27.673Z,1020.4
2017-09-29T07:27:29.286Z,1020.4
2017-09-29T07:28:30.899Z,1020.4
2017-09-29T07:29:32.540Z,1020.4
2017-09-29T07:30:34.199Z,1020.4
2017-09-29T07:31:35.845Z,1020.3
2017-09-29T07:32:37.541Z,1020.4
2017-09-29T07:33:39.217Z,1020.3
2017-09-29T07:34:40.906Z,1020.4
2017-09-29T07:35:42.584Z,1020.4
2017-09-29T07:36:44.220Z,1020.4
2017-09-29T07:37:45.911Z,1020.4
2017-09-29T07:38:47.589Z,1020.4
2017-09-29T07:39:49.199Z,1020.4
2017-09-29T07:40:50.840Z,1020.4
2017-09-29T07:41:52.526Z,1020.4
2017-09-29T07:42:54.084Z,1020.4
2017-09-29T07:43:55.739Z,1020.4
2017-09-29T07:44:57.360Z,1020.4
2017-09-29T07:45:59.033Z,1020.4
2017-09-29T07:47:00.641Z,1020.4
2017-09-29T07:48:02.340Z,1020.4
2017-09-29T07:49:03.948Z,1020.4
2017-09-29T07:50:05.657Z,1020.4
2017-09-29T07:51:07.297Z,1020.4
2017-09-29T07:52:08.960Z,1020.4
2017-09-29T07:53:10.588Z,1020.4
2017-09-29T07:54:12.158Z,1020.4
2017-09-29T07:55:13.849Z,1020.4
2017-09-29T07:56:15.433Z,1020.4
2017-09-29T07:57:17.132Z,1020.4
2017-09-29T07:58:18.753Z,1020.4
2017-09-29T07:59:20.382Z,1020.4
2017-09-29T08:00:21.999Z,1020.4
2017-09-29T08:01:23.633Z,1020.4
2017-09-29T08:02:25.283Z,1020.4
2017-09-29T08:03:26.876Z,1020.4
2017-09-29T08:04:28.493Z,1020.4
2017-09-29T08:05:30.146Z,1020.4
2017-09-29T08:06:31.749Z,1020.4
2017-09-29T08:07:33.400Z,1020.4
2017-09-29T08:08:34.997Z,1020.4
2017-09-29T08:09:36.671Z,1020.4
2017-09-29T08:10:38.250Z,1020.4
2017-09-29T08:11:39.896Z,1020.4
2017-09-29T08:12:41.534Z,1020.3
2017-09-29T08:13:43.187Z,1020.4
2017-09-29T08:14:44.839Z,1020.4
2017-09-29T08:15:46.429Z,1020.3
2017-09-29T08:16:48.014Z,1020.3
2017-09-29T08:17:49.689Z,1020.3
2017-09-29T08:18:51.320Z,1020.2
2017-09-29T08:19:52.946Z,1020.3
2017-09-29T08:20:54.533Z,1020.2
2017-09-29T08:21:56.165Z,1020.3
2017-09-29T08:22:57.770Z,1020.2
2017-09-29T08:23:59.393Z,1020.2
2017-09-29T08:25:00.992Z,1020.1
2017-09-29T08:26:02.606Z,1020.1
2017-09-29T08:27:04.212Z,1020.1
2017-09-29T08:28:05.845Z,1020.1
2017-09-29T08:29:07.460Z,1020.1
2017-09-29T08:30:09.037Z,1020.1
2017-09-29T08:31:10.652Z,1020.1
2017-09-29T08:32:12.313Z,1020.1
2017-09-29T08:33:13.942Z,1020.1
2017-09-29T08:34:15.559Z,1020.1
2017-09-29T08:35:17.186Z,1020.1
2017-09-29T08:36:18.840Z,1020.1
2017-09-29T08:37:20.442Z,1020.1
2017-09-29T08:38:22.051Z,1020.1
2017-09-29T08:39:23.745Z,1020.0
2017-09-29T08:40:25.293Z,1020.1
2017-09-29T08:41:26.933Z,1020.0
2017-09-29T08:42:28.569Z,1020.1
2017-09-29T08:43:30.224Z,1020.0
2017-09-29T08:44:31.884Z,1020.0
2017-09-29T08:45:33.552Z,1020.0
2017-09-29T08:46:35.173Z,1020.0
2017-09-29T08:47:36.829Z,1020.0
2017-09-29T08:48:38.459Z,1020.0
2017-09-29T08:49:40.085Z,1020.0
2017-09-29T08:50:41.716Z,1020.0
2017-09-29T08:51:43.259Z,1020.0
2017-09-29T08:52:44.888Z,1020.0
2017-09-29T08:53:46.457Z,1020.0
2017-09-29T08:54:48.064Z,1020.0
2017-09-29T08:55:49.679Z,1019.9
2017-09-29T08:56:51.320Z,1019.9
2017-09-29T08:57:52.954Z,1019.9
2017-09-29T08:58:54.604Z,1019.9
2017-09-29T08:59:56.195Z,1019.9
2017-09-29T09:00:57.811Z,1019.9
2017-09-29T09:01:59.459Z,1019.8
2017-09-29T09:03:01.067Z,1019.9
2017-09-29T09:04:02.691Z,1019.8
2017-09-29T09:05:04.312Z,1019.8
2017-09-29T09:06:05.970Z,1019.8
2017-09-29T09:07:07.597Z,1019.8
2017-09-29T09:08:09.237Z,1019.8
2017-09-29T09:09:10.895Z,1019.8
2017-09-29T09:10:12.617Z,1019.8
2017-09-29T09:11:14.237Z,1019.8
2017-09-29T09:12:15.827Z,1019.8
2017-09-29T09:13:17.445Z,1019.7
2017-09-29T09:14:19.108Z,1019.7
2017-09-29T09:15:20.704Z,1019.7
2017-09-29T09:16:22.298Z,1019.7
2017-09-29T09:17:23.883Z,1019.7
2017-09-29T09:18:25.472Z,1019.7
2017-09-29T09:19:27.094Z,1019.7
2017-09-29T09:20:28.781Z,1019.7
2017-09-29T09:21:30.374Z,1019.7
2017-09-29T09:22:32.009Z,1019.7
2017-09-29T09:23:33.624Z,1019.7
2017-09-29T09:24:35.244Z,1019.7
2017-09-29T09:25:36.946Z,1019.7
2017-09-29T09:26:38.572Z,1019.6
2017-09-29T09:27:40.187Z,1019.6
2017-09-29T09:28:41.867Z,1019.6
2017-09-29T09:29:43.453Z,1019.6
2017-09-29T09:30:45.060Z,1019.6
2017-09-29T09:31:46.679Z,1019.5
2017-09-29T09:32:48.282Z,1019.5
2017-09-29T09:33:49.881Z,1019.5
2017-09-29T09:34:51.619Z,1019.5
2017-09-29T09:35:53.212Z,1019.5
2017-09-29T09:36:54.813Z,1019.5
2017-09-29T09:37:56.477Z,1019.5
2017-09-29T09:38:58.080Z,1019.4
2017-09-29T09:39:59.673Z,1019.4
2017-09-29T09:41:01.255Z,1019.4
2017-09-29T09:42:02.893Z,1019.4
2017-09-29T09:43:04.508Z,1019.4
2017-09-29T09:44:06.153Z,1019.4
2017-09-29T09:45:07.787Z,1019.4
2017-09-29T09:46:09.415Z,1019.4
2017-09-29T09:47:11.078Z,1019.4
2017-09-29T09:48:12.657Z,1019.3
2017-09-29T09:49:14.314Z,1019.3
2017-09-29T09:50:15.928Z,1019.3
2017-09-29T09:51:17.529Z,1019.3
2017-09-29T09:52:19.171Z,1019.3
2017-09-29T09:53:20.808Z,1019.3
2017-09-29T09:54:22.392Z,1019.3
2017-09-29T09:55:24.003Z,1019.2
2017-09-29T09:56:25.631Z,1019.3
2017-09-29T09:57:27.274Z,1019.2
2017-09-29T09:58:28.859Z,1019.3
2017-09-29T09:59:30.494Z,1019.3
2017-09-29T10:00:32.099Z,1019.3
2017-09-29T10:01:33.731Z,1019.3
2017-09-29T10:02:35.308Z,1019.2
2017-09-29T10:03:36.903Z,1019.2
2017-09-29T10:04:38.538Z,1019.2
2017-09-29T10:05:40.129Z,1019.2
2017-09-29T10:06:41.721Z,1019.2
2017-09-29T10:07:43.412Z,1019.2
2017-09-29T10:08:45.087Z,1019.2
2017-09-29T10:09:46.743Z,1019.2
2017-09-29T10:10:48.337Z,1019.2
2017-09-29T10:11:49.947Z,1019.2
2017-09-29T10:12:51.582Z,1019.2
2017-09-29T10:13:53.118Z,1019.2
2017-09-29T10:14:54.725Z,1019.2
2017-09-29T10:15:56.415Z,1019.2
2017-09-29T10:16:58.002Z,1019.2
2017-09-29T10:17:59.696Z,1019.3
2017-09-29T10:19:01.324Z,1019.3
2017-09-29T10:20:02.931Z,1019.2
2017-09-29T10:21:04.600Z,1019.2
2017-09-29T10:22:06.258Z,1019.2
2017-09-29T10:23:07.895Z,1019.2
2017-09-29T10:24:09.566Z,1019.1
2017-09-29T10:25:11.166Z,1019.2
2017-09-29T10:26:12.784Z,1019.2
2017-09-29T10:27:14.401Z,1019.2
2017-09-29T10:28:15.996Z,1019.1
2017-09-29T10:29:17.619Z,1019.1
2017-09-29T10:30:19.228Z,1019.1
2017-09-29T10:31:20.860Z,1019.1
2017-09-29T10:32:22.491Z,1019.1
2017-09-29T10:33:24.176Z,1019.0
2017-09-29T10:34:25.788Z,1019.0
2017-09-29T10:35:27.456Z,1019.0
2017-09-29T10:36:29.149Z,1019.0
2017-09-29T10:37:30.744Z,1019.0
2017-09-29T10:38:32.399Z,1019.0
2017-09-29T10:39:34.021Z,1019.0
2017-09-29T10:40:35.700Z,1018.9
2017-09-29T10:41:37.352Z,1018.9
2017-09-29T10:42:38.990Z,1018.9
2017-09-29T10:43:40.635Z,1018.9
2017-09-29T10:44:42.238Z,1018.9
2017-09-29T10:45:43.847Z,1018.8
2017-09-29T10:46:45.507Z,1018.9
2017-09-29T10:47:47.121Z,1018.9
2017-09-29T10:48:48.740Z,1018.9
2017-09-29T10:49:50.344Z,1018.8
2017-09-29T10:50:51.970Z,1018.8
2017-09-29T10:51:53.655Z,1018.8
2017-09-29T10:52:55.253Z,1018.8
2017-09-29T10:53:56.886Z,1018.8
2017-09-29T10:54:58.530Z,1018.8
2017-09-29T10:56:00.189Z,1018.8
2017-09-29T10:57:01.856Z,1018.7
2017-09-29T10:58:03.513Z,1018.8
2017-09-29T10:59:05.169Z,1018.8
2017-09-29T11:00:06.810Z,1018.7
2017-09-29T11:01:08.438Z,1018.7
2017-09-29T11:02:09.982Z,1018.7
2017-09-29T11:03:11.530Z,1018.7
2017-09-29T11:04:13.172Z,1018.7
2017-09-29T11:05:14.786Z,1018.7
2017-09-29T11:06:16.409Z,1018.8
2017-09-29T11:07:18.085Z,1018.8
2017-09-29T11:08:19.720Z,1018.8
2017-09-29T11:09:21.372Z,1018.8
2017-09-29T11:10:22.997Z,1018.8
2017-09-29T11:11:24.615Z,1018.7
2017-09-29T11:12:26.237Z,1018.7
2017-09-29T11:13:27.856Z,1018.7
2017-09-29T11:14:29.465Z,1018.7
2017-09-29T11:15:31.090Z,1018.6
2017-09-29T11:16:32.711Z,1018.6
2017-09-29T11:17:34.360Z,1018.6
2017-09-29T11:18:36.012Z,1018.6
2017-09-29T11:19:37.658Z,1018.6
2017-09-29T11:20:39.279Z,1018.6
2017-09-29T11:21:40.910Z,1018.6
2017-09-29T11:22:42.467Z,1018.6
2017-09-29T11:23:44.079Z,1018.6
2017-09-29T11:24:45.645Z,1018.5
2017-09-29T11:25:47.261Z,1018.5
2017-09-29T11:26:48.927Z,1018.5
2017-09-29T11:27:50.587Z,1018.5
2017-09-29T11:28:52.215Z,1018.5
2017-09-29T11:29:53.931Z,1018.5
2017-09-29T11:30:55.600Z,1018.5
2017-09-29T11:31:57.217Z,1018.5
2017-09-29T11:32:58.803Z,1018.5
2017-09-29T11:34:00.514Z,1018.5
2017-09-29T11:35:02.130Z,1018.5
2017-09-29T11:36:03.765Z,1018.5
2017-09-29T11:37:05.365Z,1018.5
2017-09-29T11:38:07.004Z,1018.5
2017-09-29T11:39:08.614Z,1018.5
2017-09-29T11:40:10.244Z,1018.5
2017-09-29T11:41:11.848Z,1018.5
2017-09-29T11:42:13.519Z,1018.4
2017-09-29T11:43:15.107Z,1018.4
2017-09-29T11:44:16.707Z,1018.4
2017-09-29T11:45:18.316Z,1018.4
2017-09-29T11:46:19.922Z,1018.4
2017-09-29T11:47:21.573Z,1018.4
2017-09-29T11:48:23.221Z,1018.4
2017-09-29T11:49:24.813Z,1018.4
2017-09-29T11:50:26.427Z,1018.4
2017-09-29T11:51:28.054Z,1018.3
2017-09-29T11:52:29.671Z,1018.3
2017-09-29T11:53:31.290Z,1018.4
2017-09-29T11:54:32.940Z,1018.3
2017-09-29T11:55:34.576Z,1018.3
2017-09-29T11:56:36.843Z,1018.3
2017-09-29T11:57:38.477Z,1018.3
2017-09-29T11:58:40.090Z,1018.3
2017-09-29T11:59:41.673Z,1018.3
2017-09-29T12:00:43.327Z,1018.3
2017-09-29T12:01:44.912Z,1018.3
2017-09-29T12:02:46.566Z,1018.3
2017-09-29T12:03:48.185Z,1018.3
2017-09-29T12:04:49.820Z,1018.3
2017-09-29T12:05:51.441Z,1018.3
2017-09-29T12:06:53.053Z,1018.3
2017-09-29T12:07:54.640Z,1018.2
2017-09-29T12:08:56.238Z,1018.3
2017-09-29T12:09:57.857Z,1018.3
2017-09-29T12:10:59.464Z,1018.2
2017-09-29T12:12:01.065Z,1018.2
2017-09-29T12:13:02.706Z,1018.2
2017-09-29T12:14:04.341Z,1018.3
2017-09-29T12:15:05.995Z,1018.3
2017-09-29T12:16:07.616Z,1018.3
2017-09-29T12:17:09.205Z,1018.2
2017-09-29T12:18:10.853Z,1018.2
2017-09-29T12:19:12.555Z,1018.2
2017-09-29T12:20:14.265Z,1018.2
2017-09-29T12:21:15.878Z,1018.2
2017-09-29T12:22:17.483Z,1018.2
2017-09-29T12:23:19.088Z,1018.2
2017-09-29T12:24:20.684Z,1018.2
2017-09-29T12:25:22.253Z,1018.2
2017-09-29T12:26:23.898Z,1018.1
2017-09-29T12:27:25.506Z,1018.1
2017-09-29T12:28:27.144Z,1018.1
2017-09-29T12:29:28.840Z,1018.1
2017-09-29T12:30:30.447Z,1018.1
2017-09-29T12:31:32.067Z,1018.1
2017-09-29T12:32:33.659Z,1018.1
2017-09-29T12:33:35.272Z,1018.1
2017-09-29T12:34:36.891Z,1018.1
2017-09-29T12:35:38.503Z,1018.0
2017-09-29T12:36:40.096Z,1018.1
2017-09-29T12:37:41.685Z,1018.1
2017-09-29T12:38:43.299Z,1018.0
2017-09-29T12:39:44.892Z,1018.0
2017-09-29T12:40:46.506Z,1018.0
2017-09-29T12:41:48.127Z,1018.0
2017-09-29T12:42:49.802Z,1018.0
2017-09-29T12:43:51.418Z,1018.0
2017-09-29T12:44:53.003Z,1018.0
2017-09-29T12:45:54.686Z,1017.9
2017-09-29T12:46:56.327Z,1017.9
2017-09-29T12:47:57.994Z,1017.9
2017-09-29T12:48:59.614Z,1017.9